createdAt,value
2019-05-09T00:00:45.520Z,92
2019-05-09T00:01:45.279Z,92
2019-05-09T00:02:45.514Z,92
2019-05-09T00:05:26.099Z,92
2019-05-09T00:05:39.534Z,92
2019-05-09T00:06:38.725Z,92
2019-05-09T00:07:38.429Z,92
2019-05-09T00:08:39.185Z,92
2019-05-09T00:09:38.706Z,92
2019-05-09T00:10:41.754Z,92
2019-05-09T00:11:38.513Z,93
2019-05-09T00:12:38.536Z,93
2019-05-09T00:13:38.604Z,93
2019-05-09T00:15:51.243Z,92
2019-05-09T00:16:52.994Z,92
2019-05-09T00:17:53.147Z,92
2019-05-09T00:18:50.829Z,92
2019-05-09T00:19:51.208Z,92
2019-05-09T00:20:51.008Z,92
2019-05-09T00:21:50.897Z,92
2019-05-09T00:22:50.772Z,92
2019-05-09T00:23:51.392Z,92
2019-05-09T00:24:51.327Z,92
2019-05-09T00:25:53.579Z,92
2019-05-09T00:26:50.779Z,92
2019-05-09T00:27:50.896Z,92
2019-05-09T00:28:53.237Z,92
2019-05-09T00:29:52.988Z,92
2019-05-09T00:30:51.301Z,92
2019-05-09T00:31:51.134Z,92
2019-05-09T00:32:53.347Z,92
2019-05-09T00:33:53.330Z,92
2019-05-09T00:34:53.137Z,92
2019-05-09T00:35:53.307Z,92
2019-05-09T00:36:51.023Z,92
2019-05-09T00:37:53.479Z,92
2019-05-09T00:38:50.863Z,92
2019-05-09T00:39:52.822Z,92
2019-05-09T00:40:55.303Z,92
2019-05-09T00:42:19.574Z,92
2019-05-09T00:42:53.312Z,92
2019-05-09T00:43:50.911Z,92
2019-05-09T00:44:53.106Z,93
2019-05-09T00:45:51.449Z,93
2019-05-09T00:46:53.397Z,93
2019-05-09T00:47:50.909Z,93
2019-05-09T00:48:50.854Z,93
2019-05-09T00:49:51.070Z,93
2019-05-09T00:50:50.881Z,93
2019-05-09T00:51:50.978Z,93
2019-05-09T00:52:53.672Z,93
2019-05-09T00:53:53.467Z,93
2019-05-09T00:54:53.022Z,93
2019-05-09T00:55:52.923Z,93
2019-05-09T00:56:53.803Z,93
2019-05-09T00:57:53.227Z,93
2019-05-09T00:58:53.232Z,93
2019-05-09T00:59:52.673Z,93
2019-05-09T01:00:53.134Z,93
2019-05-09T01:01:50.964Z,93
2019-05-09T01:02:53.935Z,93
2019-05-09T01:03:53.330Z,93
2019-05-09T01:04:52.654Z,93
2019-05-09T01:05:51.226Z,93
2019-05-09T01:06:51.144Z,93
2019-05-09T01:07:53.631Z,93
2019-05-09T01:08:53.406Z,93
2019-05-09T01:09:51.211Z,93
2019-05-09T01:10:52.957Z,93
2019-05-09T01:11:53.246Z,93
2019-05-09T01:12:51.008Z,93
2019-05-09T01:13:50.893Z,93
2019-05-09T01:14:50.937Z,93
2019-05-09T01:15:52.864Z,93
2019-05-09T01:16:50.894Z,93
2019-05-09T01:17:53.425Z,93
2019-05-09T01:18:50.931Z,93
2019-05-09T01:19:51.124Z,93
2019-05-09T01:20:53.061Z,93
2019-05-09T01:21:50.889Z,93
2019-05-09T01:22:50.925Z,93
2019-05-09T01:23:50.977Z,93
2019-05-09T01:24:53.300Z,93
2019-05-09T01:25:52.928Z,93
2019-05-09T01:26:51.036Z,93
2019-05-09T01:27:51.017Z,93
2019-05-09T01:28:53.553Z,93
2019-05-09T01:29:53.426Z,93
2019-05-09T01:30:53.094Z,93
2019-05-09T01:31:51.363Z,93
2019-05-09T01:32:50.937Z,93
2019-05-09T01:33:53.284Z,93
2019-05-09T01:34:53.066Z,93
2019-05-09T01:35:50.957Z,93
2019-05-09T01:37:03.487Z,93
2019-05-09T01:37:53.903Z,93
2019-05-09T01:38:53.806Z,93
2019-05-09T01:39:53.345Z,93
2019-05-09T01:40:53.254Z,93
2019-05-09T01:41:53.117Z,93
2019-05-09T01:42:53.682Z,92
2019-05-09T01:43:53.497Z,92
2019-05-09T01:44:53.206Z,92
2019-05-09T01:45:51.467Z,92
2019-05-09T01:47:43.616Z,92
2019-05-09T01:47:54.415Z,92
2019-05-09T01:48:54.908Z,92
2019-05-09T01:49:54.514Z,92
2019-05-09T01:50:54.124Z,92
2019-05-09T01:51:54.431Z,92
2019-05-09T01:52:53.910Z,92
2019-05-09T01:53:54.216Z,92
2019-05-09T01:54:54.182Z,92
2019-05-09T01:55:54.719Z,92
2019-05-09T01:56:55.373Z,92
2019-05-09T01:57:54.022Z,92
2019-05-09T01:58:54.741Z,92
2019-05-09T01:59:54.132Z,92
2019-05-09T02:00:54.161Z,92
2019-05-09T02:01:54.200Z,92
2019-05-09T02:02:54.183Z,92
2019-05-09T02:03:54.004Z,92
2019-05-09T02:04:54.326Z,92
2019-05-09T02:05:53.978Z,93
2019-05-09T02:06:54.028Z,93
2019-05-09T02:07:54.496Z,93
2019-05-09T02:08:54.450Z,93
2019-05-09T02:09:54.160Z,93
2019-05-09T02:10:54.198Z,93
2019-05-09T02:11:54.569Z,93
2019-05-09T02:12:54.452Z,93
2019-05-09T02:13:54.039Z,93
2019-05-09T02:14:54.425Z,93
2019-05-09T02:15:54.433Z,93
2019-05-09T02:16:54.207Z,93
2019-05-09T02:17:58.307Z,93
2019-05-09T02:18:53.951Z,93
2019-05-09T02:19:54.403Z,93
2019-05-09T02:20:54.537Z,93
2019-05-09T02:21:54.236Z,93
2019-05-09T02:22:54.601Z,93
2019-05-09T02:23:53.994Z,93
2019-05-09T02:24:53.977Z,93
2019-05-09T02:25:54.274Z,93
2019-05-09T02:26:54.083Z,93
2019-05-09T02:27:55.183Z,93
2019-05-09T02:28:54.100Z,93
2019-05-09T02:29:54.518Z,93
2019-05-09T02:30:54.928Z,93
2019-05-09T02:38:28.732Z,93
2019-05-09T02:38:39.119Z,93
2019-05-09T02:39:39.380Z,93
2019-05-09T02:40:39.284Z,93
2019-05-09T02:41:38.989Z,93
2019-05-09T02:42:39.499Z,93
2019-05-09T02:43:38.803Z,93
2019-05-09T02:44:39.459Z,93
2019-05-09T02:45:38.891Z,93
2019-05-09T02:46:38.547Z,93
2019-05-09T02:47:38.544Z,93
2019-05-09T02:48:38.614Z,93
2019-05-09T02:49:39.005Z,93
2019-05-09T02:50:38.584Z,93
2019-05-09T02:51:38.857Z,93
2019-05-09T02:52:39.471Z,93
2019-05-09T02:53:39.555Z,93
2019-05-09T02:54:40.996Z,94
2019-05-09T02:55:38.657Z,94
2019-05-09T02:56:38.591Z,94
2019-05-09T02:57:37.678Z,94
2019-05-09T02:58:38.823Z,94
2019-05-09T02:59:39.141Z,94
2019-05-09T03:00:39.581Z,94
2019-05-09T03:01:39.049Z,94
2019-05-09T03:02:38.457Z,94
2019-05-09T03:03:39.164Z,94
2019-05-09T03:04:39.013Z,94
2019-05-09T03:05:39.604Z,94
2019-05-09T03:06:38.815Z,94
2019-05-09T03:07:39.330Z,94
2019-05-09T03:08:39.603Z,94
2019-05-09T03:09:38.780Z,94
2019-05-09T03:10:38.423Z,94
2019-05-09T03:11:38.728Z,94
2019-05-09T03:12:39.763Z,94
2019-05-09T03:13:39.324Z,94
2019-05-09T03:14:38.458Z,94
2019-05-09T03:15:39.280Z,94
2019-05-09T03:16:39.610Z,94
2019-05-09T03:17:38.646Z,94
2019-05-09T03:18:38.960Z,94
2019-05-09T03:19:38.646Z,94
2019-05-09T03:20:39.116Z,94
2019-05-09T03:21:38.907Z,94
2019-05-09T03:22:39.343Z,94
2019-05-09T03:23:39.904Z,94
2019-05-09T03:24:39.440Z,94
2019-05-09T03:25:40.682Z,94
2019-05-09T03:26:38.696Z,94
2019-05-09T03:27:39.041Z,94
2019-05-09T03:28:38.759Z,94
2019-05-09T03:29:39.578Z,94
2019-05-09T03:30:39.561Z,94
2019-05-09T03:31:39.199Z,94
2019-05-09T03:32:38.666Z,94
2019-05-09T03:33:40.324Z,94
2019-05-09T03:34:37.770Z,94
2019-05-09T03:35:37.964Z,94
2019-05-09T03:36:38.458Z,94
2019-05-09T03:37:38.687Z,94
2019-05-09T03:38:37.819Z,94
2019-05-09T03:39:37.821Z,94
2019-05-09T03:40:38.088Z,94
2019-05-09T03:41:39.435Z,94
2019-05-09T03:42:43.027Z,94
2019-05-09T03:43:38.197Z,94
2019-05-09T03:44:38.531Z,94
2019-05-09T03:45:37.749Z,94
2019-05-09T03:46:38.419Z,94
2019-05-09T03:47:38.320Z,94
2019-05-09T03:48:37.862Z,94
2019-05-09T03:49:37.870Z,94
2019-05-09T03:50:38.348Z,94
2019-05-09T03:51:38.091Z,94
2019-05-09T03:52:38.014Z,94
2019-05-09T03:53:38.250Z,94
2019-05-09T03:54:37.865Z,94
2019-05-09T03:55:38.364Z,94
2019-05-09T03:56:37.781Z,94
2019-05-09T03:57:37.751Z,94
2019-05-09T03:58:38.535Z,94
2019-05-09T03:59:38.197Z,94
2019-05-09T04:01:47.783Z,94
2019-05-09T04:01:59.427Z,94
2019-05-09T04:02:59.477Z,94
2019-05-09T04:03:58.999Z,94
2019-05-09T04:04:58.928Z,94
2019-05-09T04:06:02.596Z,94
2019-05-09T04:06:59.223Z,94
2019-05-09T04:07:58.960Z,94
2019-05-09T04:08:59.397Z,94
2019-05-09T04:09:59.043Z,94
2019-05-09T04:10:59.145Z,94
2019-05-09T04:12:00.225Z,94
2019-05-09T04:12:59.593Z,94
2019-05-09T04:13:59.499Z,94
2019-05-09T04:14:59.171Z,94
2019-05-09T04:15:59.124Z,94
2019-05-09T04:16:59.492Z,94
2019-05-09T04:17:59.577Z,94
2019-05-09T04:18:59.146Z,94
2019-05-09T04:19:59.517Z,94
2019-05-09T04:20:58.959Z,94
2019-05-09T04:22:01.776Z,94
2019-05-09T04:22:59.468Z,94
2019-05-09T04:23:59.075Z,94
2019-05-09T04:24:59.490Z,94
2019-05-09T04:25:59.430Z,94
2019-05-09T04:26:59.394Z,94
2019-05-09T04:27:58.977Z,94
2019-05-09T04:28:59.033Z,94
2019-05-09T04:29:59.003Z,94
2019-05-09T04:30:59.112Z,94
2019-05-09T04:31:59.726Z,94
2019-05-09T04:32:59.042Z,94
2019-05-09T04:33:59.094Z,94
2019-05-09T04:35:00.192Z,94
2019-05-09T04:35:59.652Z,94
2019-05-09T04:36:59.200Z,94
2019-05-09T04:37:59.772Z,94
2019-05-09T04:38:59.083Z,94
2019-05-09T04:40:03.174Z,94
2019-05-09T04:40:59.914Z,94
2019-05-09T04:42:00.985Z,94
2019-05-09T04:43:07.879Z,94
2019-05-09T04:43:59.644Z,94
2019-05-09T04:45:03.253Z,94
2019-05-09T04:45:59.135Z,94
2019-05-09T04:47:03.165Z,94
2019-05-09T04:47:59.349Z,94
2019-05-09T04:49:01.630Z,94
2019-05-09T04:49:59.082Z,94
2019-05-09T04:50:59.607Z,93
2019-05-09T04:51:59.055Z,93
2019-05-09T04:53:00.551Z,93
2019-05-09T04:53:59.507Z,93
2019-05-09T04:54:59.094Z,93
2019-05-09T04:55:59.591Z,93
2019-05-09T04:56:59.318Z,93
2019-05-09T04:58:00.125Z,93
2019-05-09T04:58:59.138Z,93
2019-05-09T04:59:59.112Z,93
2019-05-09T05:00:59.584Z,93
2019-05-09T05:01:59.612Z,93
2019-05-09T05:02:59.342Z,93
2019-05-09T05:03:59.650Z,93
2019-05-09T05:04:59.883Z,93
2019-05-09T05:05:59.123Z,93
2019-05-09T05:06:59.457Z,93
2019-05-09T05:07:59.353Z,93
2019-05-09T05:08:59.674Z,93
2019-05-09T05:09:59.578Z,93
2019-05-09T05:10:59.705Z,93
2019-05-09T05:12:00.559Z,93
2019-05-09T05:12:59.105Z,93
2019-05-09T05:13:59.147Z,93
2019-05-09T05:15:01.769Z,93
2019-05-09T05:15:59.703Z,93
2019-05-09T05:17:06.269Z,93
2019-05-09T05:17:59.168Z,93
2019-05-09T05:18:59.456Z,92
2019-05-09T05:19:59.410Z,92
2019-05-09T05:20:59.304Z,92
2019-05-09T05:21:59.196Z,92
2019-05-09T05:23:00.051Z,92
2019-05-09T05:23:59.853Z,92
2019-05-09T05:25:00.101Z,92
2019-05-09T05:25:59.483Z,92
2019-05-09T05:26:59.850Z,91
2019-05-09T05:27:59.798Z,91
2019-05-09T05:28:59.205Z,90
2019-05-09T05:29:59.191Z,90
2019-05-09T05:30:59.079Z,90
2019-05-09T05:31:59.192Z,90
2019-05-09T05:32:59.689Z,90
2019-05-09T05:33:59.109Z,90
2019-05-09T05:34:59.449Z,90
2019-05-09T05:35:59.197Z,90
2019-05-09T05:36:59.367Z,88
2019-05-09T05:38:00.150Z,88
2019-05-09T05:38:59.573Z,88
2019-05-09T05:39:59.452Z,88
2019-05-09T05:41:01.425Z,88
2019-05-09T05:42:00.600Z,87
2019-05-09T05:42:59.642Z,87
2019-05-09T05:43:59.850Z,87
2019-05-09T05:44:59.481Z,87
2019-05-09T05:45:59.673Z,87
2019-05-09T05:47:00.538Z,87
2019-05-09T05:47:59.270Z,87
2019-05-09T05:48:59.215Z,87
2019-05-09T05:49:59.705Z,87
2019-05-09T05:50:59.435Z,87
2019-05-09T05:52:02.133Z,87
2019-05-09T05:52:59.326Z,87
2019-05-09T05:54:01.240Z,87
2019-05-09T05:54:59.305Z,87
2019-05-09T05:55:59.778Z,87
2019-05-09T05:56:59.282Z,87
2019-05-09T05:58:01.650Z,87
2019-05-09T05:58:59.331Z,87
2019-05-09T05:59:59.918Z,86
2019-05-09T06:01:00.199Z,86
2019-05-09T06:01:59.521Z,86
2019-05-09T06:02:59.616Z,86
2019-05-09T06:03:59.213Z,86
2019-05-09T06:04:59.573Z,85
2019-05-09T06:05:59.303Z,85
2019-05-09T06:07:00.438Z,85
2019-05-09T06:07:59.634Z,84
2019-05-09T06:08:59.356Z,84
2019-05-09T06:10:15.804Z,83
2019-05-09T06:10:59.369Z,83
2019-05-09T06:12:00.109Z,83
2019-05-09T06:12:59.842Z,83
2019-05-09T06:14:06.268Z,83
2019-05-09T06:14:59.430Z,83
2019-05-09T06:15:59.978Z,83
2019-05-09T06:16:59.368Z,83
2019-05-09T06:18:00.433Z,81
2019-05-09T06:19:00.175Z,81
2019-05-09T06:20:00.443Z,81
2019-05-09T06:20:59.452Z,81
2019-05-09T06:21:59.672Z,81
2019-05-09T06:23:00.590Z,82
2019-05-09T06:23:59.475Z,82
2019-05-09T06:24:59.713Z,80
2019-05-09T06:26:00.384Z,80
2019-05-09T06:27:00.757Z,80
2019-05-09T06:28:00.093Z,80
2019-05-09T06:29:00.402Z,80
2019-05-09T06:29:59.588Z,79
2019-05-09T06:30:59.538Z,79
2019-05-09T06:32:00.575Z,79
2019-05-09T06:33:00.048Z,80
2019-05-09T06:34:01.331Z,80
2019-05-09T06:34:59.414Z,80
2019-05-09T06:35:59.661Z,80
2019-05-09T06:37:02.996Z,80
2019-05-09T06:37:59.738Z,81
2019-05-09T06:38:59.713Z,81
2019-05-09T06:39:59.557Z,81
2019-05-09T06:40:59.455Z,81
2019-05-09T06:41:59.500Z,81
2019-05-09T06:43:00.220Z,81
2019-05-09T06:44:09.513Z,81
2019-05-09T06:44:59.538Z,81
2019-05-09T06:45:59.375Z,81
2019-05-09T06:46:59.483Z,81
2019-05-09T06:48:00.369Z,81
2019-05-09T06:49:18.861Z,81
2019-05-09T06:50:00.447Z,81
2019-05-09T06:51:00.031Z,80
2019-05-09T06:51:59.933Z,80
2019-05-09T06:52:59.611Z,81
2019-05-09T06:53:59.433Z,81
2019-05-09T06:55:00.960Z,81
2019-05-09T06:55:59.758Z,81
2019-05-09T06:57:00.305Z,81
2019-05-09T06:57:59.822Z,81
2019-05-09T06:58:59.549Z,81
2019-05-09T07:00:00.209Z,81
2019-05-09T07:01:00.038Z,81
2019-05-09T07:01:59.438Z,81
2019-05-09T07:03:00.765Z,81
2019-05-09T07:04:00.001Z,81
2019-05-09T07:04:59.563Z,81
2019-05-09T07:06:01.519Z,80
2019-05-09T07:07:00.446Z,80
2019-05-09T07:07:59.495Z,80
2019-05-09T07:09:00.060Z,81
2019-05-09T07:09:59.816Z,81
2019-05-09T07:10:59.934Z,81
2019-05-09T07:12:00.668Z,81
2019-05-09T07:12:59.794Z,81
2019-05-09T07:13:59.778Z,81
2019-05-09T07:14:59.691Z,81
2019-05-09T07:16:00.765Z,81
2019-05-09T07:16:59.634Z,81
2019-05-09T07:18:00.453Z,81
2019-05-09T07:19:01.843Z,82
2019-05-09T07:20:00.296Z,82
2019-05-09T07:21:00.584Z,81
2019-05-09T07:22:00.043Z,81
2019-05-09T07:23:00.015Z,81
2019-05-09T07:23:59.479Z,81
2019-05-09T07:25:05.908Z,81
2019-05-09T07:25:59.670Z,81
2019-05-09T07:27:00.758Z,81
2019-05-09T07:28:00.170Z,81
2019-05-09T07:29:00.752Z,81
2019-05-09T07:29:59.764Z,81
2019-05-09T07:31:00.064Z,80
2019-05-09T07:32:00.134Z,80
2019-05-09T07:33:00.793Z,80
2019-05-09T07:34:00.207Z,81
2019-05-09T07:35:00.415Z,81
2019-05-09T07:36:01.350Z,81
2019-05-09T07:36:59.561Z,81
2019-05-09T07:38:00.235Z,81
2019-05-09T07:39:00.856Z,81
2019-05-09T07:39:59.614Z,81
2019-05-09T07:41:01.520Z,81
2019-05-09T07:42:00.098Z,82
2019-05-09T07:43:00.308Z,82
2019-05-09T07:44:01.133Z,81
2019-05-09T07:44:59.713Z,81
2019-05-09T07:46:00.311Z,81
2019-05-09T07:47:00.004Z,81
2019-05-09T07:47:59.750Z,81
2019-05-09T07:48:59.730Z,81
2019-05-09T07:50:00.752Z,81
2019-05-09T07:51:00.367Z,81
2019-05-09T07:52:06.159Z,81
2019-05-09T07:53:00.088Z,81
2019-05-09T07:54:00.337Z,80
2019-05-09T07:55:00.590Z,80
2019-05-09T07:56:00.573Z,80
2019-05-09T07:56:59.995Z,81
2019-05-09T07:58:00.354Z,81
2019-05-09T07:58:59.756Z,81
2019-05-09T08:00:00.581Z,81
2019-05-09T08:01:01.536Z,81
2019-05-09T08:01:59.958Z,82
2019-05-09T08:03:00.116Z,82
2019-05-09T08:03:59.872Z,80
2019-05-09T08:05:01.204Z,80
2019-05-09T08:06:00.899Z,80
2019-05-09T08:06:59.899Z,79
2019-05-09T08:07:59.485Z,79
2019-05-09T08:09:00.426Z,79
2019-05-09T08:10:00.702Z,78
2019-05-09T08:11:00.706Z,78
2019-05-09T08:12:00.946Z,76
2019-05-09T08:12:59.583Z,76
2019-05-09T08:13:59.554Z,76
2019-05-09T08:15:07.557Z,74
2019-05-09T08:15:59.769Z,74
2019-05-09T08:16:59.770Z,74
2019-05-09T08:17:59.793Z,74
2019-05-09T08:18:59.877Z,74
2019-05-09T08:19:59.574Z,74
2019-05-09T08:20:59.782Z,74
2019-05-09T08:22:00.651Z,72
2019-05-09T08:23:01.905Z,72
2019-05-09T08:23:59.744Z,72
2019-05-09T08:24:59.633Z,71
2019-05-09T08:25:59.754Z,71
2019-05-09T08:27:00.202Z,73
2019-05-09T08:27:59.962Z,73
2019-05-09T08:28:59.977Z,73
2019-05-09T08:30:00.416Z,73
2019-05-09T08:30:59.708Z,73
2019-05-09T08:31:59.476Z,74
2019-05-09T08:33:00.697Z,74
2019-05-09T08:33:59.674Z,74
2019-05-09T08:35:00.158Z,73
2019-05-09T08:36:00.459Z,73
2019-05-09T08:36:59.743Z,73
2019-05-09T08:37:59.872Z,73
2019-05-09T08:39:00.353Z,73
2019-05-09T08:40:00.339Z,72
2019-05-09T08:41:01.060Z,72
2019-05-09T08:42:00.181Z,72
2019-05-09T08:43:00.107Z,72
2019-05-09T08:44:00.820Z,72
2019-05-09T08:44:59.999Z,72
2019-05-09T08:45:59.856Z,72
2019-05-09T08:46:59.844Z,72
2019-05-09T08:47:59.635Z,72
2019-05-09T08:49:00.551Z,72
2019-05-09T08:49:59.602Z,73
2019-05-09T08:50:59.693Z,73
2019-05-09T08:52:09.223Z,73
2019-05-09T08:52:59.522Z,73
2019-05-09T08:54:00.078Z,73
2019-05-09T08:55:00.039Z,73
2019-05-09T08:56:00.493Z,73
2019-05-09T08:56:59.889Z,73
2019-05-09T08:57:59.572Z,73
2019-05-09T08:59:01.920Z,73
2019-05-09T08:59:59.848Z,72
2019-05-09T09:01:03.358Z,72
2019-05-09T09:02:12.373Z,72
2019-05-09T09:02:59.885Z,71
2019-05-09T09:03:59.547Z,71
2019-05-09T09:05:01.846Z,72
2019-05-09T09:06:00.179Z,72
2019-05-09T09:06:59.625Z,72
2019-05-09T09:07:59.492Z,72
2019-05-09T09:08:59.797Z,72
2019-05-09T09:09:57.752Z,72
2019-05-09T09:10:57.790Z,73
2019-05-09T09:11:58.264Z,73
2019-05-09T09:12:59.801Z,76
2019-05-09T09:13:57.783Z,76
2019-05-09T09:14:59.433Z,76
2019-05-09T09:19:18.505Z,75
2019-05-09T09:19:28.575Z,75
2019-05-09T09:20:28.927Z,76
2019-05-09T09:21:28.712Z,76
2019-05-09T09:22:31.171Z,76
2019-05-09T09:23:39.136Z,78
2019-05-09T09:24:31.067Z,78
2019-05-09T09:25:30.945Z,77
2019-05-09T09:26:31.136Z,77
2019-05-09T09:27:28.408Z,77
2019-05-09T09:28:28.638Z,78
2019-05-09T09:29:28.917Z,78
2019-05-09T09:30:29.449Z,77
2019-05-09T09:31:28.633Z,77
2019-05-09T09:32:28.439Z,77
2019-05-09T09:33:28.668Z,78
2019-05-09T09:34:29.940Z,78
2019-05-09T09:35:28.384Z,77
2019-05-09T09:36:28.767Z,77
2019-05-09T09:37:43.804Z,77
2019-05-09T09:38:28.304Z,77
2019-05-09T09:39:30.900Z,77
2019-05-09T09:40:28.672Z,77
2019-05-09T09:41:28.893Z,77
2019-05-09T09:42:28.486Z,77
2019-05-09T09:43:28.780Z,77
2019-05-09T09:44:58.453Z,77
2019-05-09T09:45:28.904Z,77
2019-05-09T09:46:28.841Z,75
2019-05-09T09:47:28.738Z,75
2019-05-09T09:48:28.683Z,75
2019-05-09T09:49:29.465Z,75
2019-05-09T09:50:28.857Z,75
2019-05-09T09:51:28.506Z,75
2019-05-09T09:52:32.070Z,75
2019-05-09T09:53:28.575Z,77
2019-05-09T09:54:28.521Z,77
2019-05-09T09:55:28.657Z,77
2019-05-09T09:56:28.754Z,76
2019-05-09T09:57:29.373Z,76
2019-05-09T09:58:28.483Z,76
2019-05-09T09:59:28.779Z,76
2019-05-09T10:00:28.447Z,76
2019-05-09T10:01:29.035Z,76
2019-05-09T10:02:28.429Z,76
2019-05-09T10:03:28.422Z,75
2019-05-09T10:11:01.252Z,75
2019-05-09T10:11:12.986Z,75
2019-05-09T10:12:13.263Z,77
2019-05-09T10:13:13.764Z,77
2019-05-09T10:14:13.139Z,77
2019-05-09T10:15:12.989Z,77
2019-05-09T10:16:25.228Z,78
2019-05-09T10:17:13.618Z,78
2019-05-09T10:18:13.439Z,78
2019-05-09T10:19:13.230Z,78
2019-05-09T10:21:27.507Z,80
2019-05-09T10:22:27.777Z,80
2019-05-09T10:23:25.331Z,80
2019-05-09T10:24:25.289Z,81
2019-05-09T10:25:27.467Z,81
2019-05-09T10:26:28.325Z,82
2019-05-09T10:27:28.396Z,82
2019-05-09T10:28:29.802Z,82
2019-05-09T10:29:25.395Z,83
2019-05-09T10:30:25.355Z,83
2019-05-09T10:31:28.198Z,84
2019-05-09T10:32:25.458Z,84
2019-05-09T10:33:25.277Z,84
2019-05-09T10:34:25.542Z,83
2019-05-09T10:35:25.320Z,83
2019-05-09T10:36:27.760Z,84
2019-05-09T10:37:25.296Z,84
2019-05-09T10:38:27.823Z,84
2019-05-09T10:42:39.811Z,85
2019-05-09T10:42:53.284Z,85
2019-05-09T10:43:53.943Z,86
2019-05-09T10:44:53.823Z,87
2019-05-09T10:45:54.487Z,87
2019-05-09T10:46:57.249Z,88
2019-05-09T10:47:53.891Z,88
2019-05-09T10:48:54.143Z,88
2019-05-09T10:49:54.217Z,88
2019-05-09T10:51:02.733Z,88
2019-05-09T10:51:53.957Z,88
2019-05-09T10:52:54.080Z,88
2019-05-09T10:53:54.044Z,88
2019-05-09T10:54:54.258Z,87
2019-05-09T10:55:53.860Z,87
2019-05-09T10:56:54.316Z,87
2019-05-09T10:57:55.358Z,87
2019-05-09T10:58:54.748Z,87
2019-05-09T10:59:54.097Z,87
2019-05-09T11:00:53.946Z,87
2019-05-09T11:01:57.857Z,87
2019-05-09T11:02:53.837Z,87
2019-05-09T11:03:54.133Z,87
2019-05-09T11:04:53.993Z,87
2019-05-09T11:05:54.221Z,87
2019-05-09T11:06:54.051Z,87
2019-05-09T11:07:54.651Z,87
2019-05-09T11:08:54.337Z,87
2019-05-09T11:09:54.151Z,86
2019-05-09T11:10:54.330Z,86
2019-05-09T11:11:53.917Z,86
2019-05-09T11:13:28.628Z,85
2019-05-09T11:14:33.543Z,85
2019-05-09T11:15:27.787Z,83
2019-05-09T11:16:38.046Z,83
2019-05-09T11:17:28.501Z,83
2019-05-09T11:18:28.561Z,83
2019-05-09T11:19:28.732Z,83
2019-05-09T11:20:28.393Z,83
2019-05-09T11:21:28.705Z,83
2019-05-09T11:22:29.091Z,81
2019-05-09T11:23:29.129Z,81
2019-05-09T11:24:38.805Z,81
2019-05-09T11:25:27.762Z,82
2019-05-09T11:26:28.478Z,82
2019-05-09T11:27:28.553Z,78
2019-05-09T11:28:28.492Z,78
2019-05-09T11:29:28.118Z,78
2019-05-09T11:30:28.264Z,78
2019-05-09T11:31:29.319Z,78
2019-05-09T11:32:28.033Z,78
2019-05-09T11:33:27.880Z,78
2019-05-09T11:34:27.961Z,78
2019-05-09T11:35:28.064Z,79
2019-05-09T11:36:27.555Z,79
2019-05-09T11:37:27.648Z,78
2019-05-09T11:38:32.258Z,78
2019-05-09T11:39:35.715Z,78
2019-05-09T11:40:28.231Z,78
2019-05-09T11:41:29.295Z,78
2019-05-09T11:42:56.287Z,78
2019-05-09T11:43:29.828Z,77
2019-05-09T11:44:27.837Z,77
2019-05-09T11:45:28.765Z,76
2019-05-09T11:46:28.718Z,76
2019-05-09T11:47:33.729Z,76
2019-05-09T11:48:28.404Z,77
2019-05-09T11:49:29.473Z,77
2019-05-09T11:50:27.607Z,76
2019-05-09T11:51:28.795Z,76
2019-05-09T11:52:28.736Z,76
2019-05-09T11:54:41.162Z,77
2019-05-09T11:55:42.839Z,75
2019-05-09T11:56:40.802Z,75
2019-05-09T11:57:40.980Z,75
2019-05-09T11:58:41.257Z,75
2019-05-09T11:59:41.212Z,75
2019-05-09T12:00:41.010Z,76
2019-05-09T12:01:40.966Z,76
2019-05-09T12:02:40.978Z,76
2019-05-09T12:03:40.957Z,76
2019-05-09T12:04:41.349Z,76
2019-05-09T12:05:40.933Z,76
2019-05-09T12:06:41.694Z,76
2019-05-09T12:07:40.931Z,76
2019-05-09T12:08:41.083Z,76
2019-05-09T12:09:41.875Z,76
2019-05-09T12:10:42.000Z,76
2019-05-09T12:11:44.177Z,76
2019-05-09T12:12:41.037Z,76
2019-05-09T12:13:41.472Z,76
2019-05-09T12:14:42.884Z,76
2019-05-09T12:15:41.110Z,77
2019-05-09T12:16:40.997Z,77
2019-05-09T12:17:53.350Z,77
2019-05-09T12:18:41.468Z,77
2019-05-09T12:19:40.919Z,77
2019-05-09T12:20:40.898Z,77
2019-05-09T12:21:46.547Z,77
2019-05-09T12:22:41.474Z,77
2019-05-09T12:23:41.389Z,76
2019-05-09T12:24:40.878Z,76
2019-05-09T12:25:41.650Z,76
2019-05-09T12:26:41.031Z,76
2019-05-09T12:27:40.898Z,76
2019-05-09T12:28:41.145Z,76
2019-05-09T12:29:41.599Z,76
2019-05-09T12:30:40.936Z,76
2019-05-09T12:31:41.045Z,75
2019-05-09T12:32:43.099Z,75
2019-05-09T12:33:42.338Z,77
2019-05-09T12:34:41.748Z,77
2019-05-09T12:35:41.101Z,77
2019-05-09T12:36:41.828Z,76
2019-05-09T12:37:40.964Z,76
2019-05-09T12:38:45.664Z,76
2019-05-09T12:39:41.456Z,76
2019-05-09T12:40:41.472Z,76
2019-05-09T12:41:41.509Z,78
2019-05-09T12:42:41.253Z,78
2019-05-09T12:43:41.676Z,78
2019-05-09T12:44:41.206Z,78
2019-05-09T12:45:41.422Z,78
2019-05-09T12:46:41.920Z,80
2019-05-09T12:47:41.466Z,80
2019-05-09T12:48:40.859Z,81
2019-05-09T12:49:41.226Z,81
2019-05-09T12:50:40.926Z,81
2019-05-09T12:51:41.338Z,83
2019-05-09T12:52:41.089Z,83
2019-05-09T12:53:41.337Z,84
2019-05-09T12:54:40.901Z,84
2019-05-09T12:55:40.876Z,84
2019-05-09T12:56:40.958Z,86
2019-05-09T12:57:41.184Z,86
2019-05-09T12:58:40.939Z,86
2019-05-09T12:59:46.520Z,86
2019-05-09T13:00:42.029Z,86
2019-05-09T13:01:42.409Z,86
2019-05-09T13:02:40.905Z,86
2019-05-09T13:03:41.577Z,86
2019-05-09T13:04:40.887Z,88
2019-05-09T13:05:41.879Z,88
2019-05-09T13:06:40.922Z,88
2019-05-09T13:07:42.313Z,88
2019-05-09T13:08:42.132Z,88
2019-05-09T13:09:42.232Z,88
2019-05-09T13:10:51.024Z,88
2019-05-09T13:11:41.538Z,89
2019-05-09T13:12:41.799Z,89
2019-05-09T13:13:41.689Z,89
2019-05-09T13:14:41.323Z,90
2019-05-09T13:15:40.924Z,90
2019-05-09T13:16:45.501Z,90
2019-05-09T13:17:41.609Z,90
2019-05-09T13:18:41.169Z,90
2019-05-09T13:19:41.824Z,91
2019-05-09T13:20:40.866Z,91
2019-05-09T13:21:41.527Z,91
2019-05-09T13:22:41.486Z,91
2019-05-09T13:23:41.531Z,91
2019-05-09T13:24:40.854Z,92
2019-05-09T13:25:41.650Z,92
2019-05-09T13:26:41.009Z,92
2019-05-09T13:27:40.947Z,92
2019-05-09T13:28:42.043Z,92
2019-05-09T13:29:41.423Z,92
2019-05-09T13:30:40.994Z,92
2019-05-09T13:31:41.375Z,92
2019-05-09T13:32:41.010Z,92
2019-05-09T13:33:41.775Z,92
2019-05-09T13:34:41.201Z,92
2019-05-09T13:35:41.078Z,92
2019-05-09T13:36:41.169Z,92
2019-05-09T13:37:41.639Z,92
2019-05-09T13:38:55.174Z,92
2019-05-09T13:39:41.747Z,92
2019-05-09T13:40:41.083Z,92
2019-05-09T13:41:42.390Z,92
2019-05-09T13:42:41.233Z,92
2019-05-09T13:43:46.888Z,92
2019-05-09T13:44:41.723Z,92
2019-05-09T13:45:42.120Z,92
2019-05-09T13:46:40.995Z,92
2019-05-09T13:47:41.081Z,92
2019-05-09T13:48:57.169Z,92
2019-05-09T13:49:41.079Z,92
2019-05-09T13:50:40.987Z,92
2019-05-09T13:51:47.013Z,92
2019-05-09T13:52:42.392Z,92
2019-05-09T13:53:41.345Z,92
2019-05-09T13:54:41.776Z,92
2019-05-09T13:55:41.194Z,92
2019-05-09T13:56:40.961Z,92
2019-05-09T13:57:40.977Z,92
2019-05-09T13:58:41.012Z,92
2019-05-09T13:59:41.109Z,92
2019-05-09T14:00:55.431Z,92
2019-05-09T14:01:41.467Z,92
2019-05-09T14:02:44.727Z,92
2019-05-09T14:03:41.131Z,92
2019-05-09T14:04:41.498Z,92
2019-05-09T14:05:41.023Z,92
2019-05-09T14:06:41.356Z,92
2019-05-09T14:07:41.194Z,92
2019-05-09T14:08:41.053Z,92
2019-05-09T14:09:42.051Z,92
2019-05-09T14:10:41.113Z,92
2019-05-09T14:11:41.524Z,92
2019-05-09T14:12:41.410Z,92
2019-05-09T14:13:41.412Z,92
2019-05-09T14:14:41.487Z,92
2019-05-09T14:15:43.796Z,92
2019-05-09T14:16:41.007Z,92
2019-05-09T14:17:48.250Z,92
2019-05-09T14:18:41.046Z,92
2019-05-09T14:19:45.925Z,92
2019-05-09T14:20:41.246Z,92
2019-05-09T14:21:41.145Z,92
2019-05-09T14:22:42.157Z,92
2019-05-09T14:23:47.418Z,92
2019-05-09T14:24:41.308Z,92
2019-05-09T14:25:41.042Z,92
2019-05-09T14:26:41.152Z,92
2019-05-09T14:27:41.220Z,92
2019-05-09T14:28:41.435Z,92
2019-05-09T14:29:41.039Z,92
2019-05-09T14:30:41.289Z,92
2019-05-09T14:31:41.058Z,92
2019-05-09T14:32:41.578Z,92
2019-05-09T14:33:40.941Z,92
2019-05-09T14:34:42.616Z,92
2019-05-09T14:35:40.999Z,92
2019-05-09T14:36:45.015Z,92
2019-05-09T14:37:41.473Z,92